createdAt,value
2022-12-13T00:01:47.386Z,5.38
2022-12-13T00:04:17.346Z,5.75
2022-12-13T00:06:45.866Z,4.75
2022-12-13T00:09:15.086Z,5.82
2022-12-13T00:11:43.499Z,4.43
2022-12-13T00:14:14.296Z,3.30
2022-12-13T00:16:46.099Z,4.53
2022-12-13T00:19:19.461Z,5.75
2022-12-13T00:21:47.824Z,5.43
2022-12-13T00:24:16.232Z,5.30
2022-12-13T00:26:44.547Z,4.18
2022-12-13T00:29:13.609Z,4.72
2022-12-13T00:34:32.026Z,3.28
2022-12-13T00:37:00.513Z,1.08
2022-12-13T00:39:29.556Z,2.80
2022-12-13T00:41:58.103Z,3.15
2022-12-13T00:44:26.452Z,3.92
2022-12-13T00:46:54.774Z,5.78
2022-12-13T00:49:23.082Z,4.78
2022-12-13T00:51:52.725Z,4.70
2022-12-13T00:54:20.972Z,3.95
2022-12-13T00:56:51.321Z,4.32
2022-12-13T00:59:19.664Z,3.70
2022-12-13T01:01:47.981Z,3.35
2022-12-13T01:04:16.563Z,1.85
2022-12-13T01:06:46.294Z,4.28
2022-12-13T01:09:19.069Z,3.90
2022-12-13T01:11:47.614Z,4.07
2022-12-13T01:14:16.573Z,4.63
2022-12-13T01:16:44.867Z,4.70
2022-12-13T01:19:13.162Z,3.95
2022-12-13T01:21:42.082Z,4.13
2022-12-13T01:24:10.324Z,3.55
2022-12-13T01:26:40.092Z,3.83
2022-12-13T01:29:09.112Z,5.00
2022-12-13T01:31:41.501Z,3.35
2022-12-13T01:34:11.458Z,4.53
2022-12-13T01:36:40.803Z,5.72
2022-12-13T01:39:15.078Z,7.45
2022-12-13T01:41:46.719Z,10.23
2022-12-13T01:44:53.906Z,9.73
2022-12-13T01:47:26.177Z,9.20
2022-12-13T01:49:56.386Z,9.02
2022-12-13T01:52:29.933Z,10.10
2022-12-13T01:55:03.561Z,8.85
2022-12-13T01:57:34.536Z,8.07
2022-12-13T02:00:03.684Z,7.72
2022-12-13T02:02:35.747Z,8.13
2022-12-13T02:05:08.248Z,7.90
2022-12-13T02:07:38.556Z,8.05
2022-12-13T02:10:08.828Z,7.15
2022-12-13T02:12:39.224Z,8.80
2022-12-13T02:15:11.836Z,7.95
2022-12-13T02:18:09.320Z,6.45
2022-12-13T02:20:59.026Z,6.38
2022-12-13T02:23:49.691Z,7.78
2022-12-13T02:26:58.515Z,7.55
2022-12-13T02:30:14.127Z,7.20
2022-12-13T02:32:51.787Z,6.40
2022-12-13T02:35:24.749Z,5.57
2022-12-13T02:38:01.251Z,5.15
2022-12-13T02:40:32.681Z,3.75
2022-12-13T02:43:03.888Z,3.90
2022-12-13T02:45:36.084Z,4.38
2022-12-13T02:48:07.091Z,4.22
2022-12-13T02:50:35.590Z,3.40
2022-12-13T02:53:03.894Z,4.50
2022-12-13T02:55:35.934Z,4.15
2022-12-13T02:58:04.149Z,3.42
2022-12-13T03:00:41.084Z,3.58
2022-12-13T03:03:19.270Z,3.65
2022-12-13T03:06:09.339Z,3.97
2022-12-13T03:08:46.610Z,2.80
2022-12-13T03:11:16.643Z,4.05
2022-12-13T03:13:49.659Z,4.32
2022-12-13T03:16:27.499Z,3.28
2022-12-13T03:19:00.991Z,5.00
2022-12-13T03:21:29.408Z,3.90
2022-12-13T03:23:57.769Z,4.68
2022-12-13T03:26:28.014Z,4.32
2022-12-13T03:28:56.296Z,4.40
2022-12-13T03:31:24.598Z,3.70
2022-12-13T03:33:52.919Z,3.50
2022-12-13T03:36:22.709Z,3.45
2022-12-13T03:38:52.430Z,3.45
2022-12-13T03:41:23.000Z,3.80
2022-12-13T03:43:51.544Z,3.05
2022-12-13T03:46:19.814Z,3.22
2022-12-13T03:48:48.140Z,3.25
2022-12-13T03:51:16.379Z,3.58
2022-12-13T03:53:45.971Z,3.65
2022-12-13T03:56:14.242Z,3.28
2022-12-13T03:58:43.353Z,1.65
2022-12-13T04:01:13.799Z,3.72
2022-12-13T04:03:43.532Z,0.30
2022-12-13T04:06:12.197Z,1.40
2022-12-13T04:08:41.054Z,2.97
2022-12-13T04:11:28.158Z,2.22
2022-12-13T04:13:58.270Z,2.55
2022-12-13T04:16:26.584Z,3.63
2022-12-13T04:18:54.874Z,3.72
2022-12-13T04:21:23.198Z,3.80
2022-12-13T04:23:51.650Z,2.60
2022-12-13T04:26:21.424Z,3.95
2022-12-13T04:28:54.437Z,3.30
2022-12-13T04:31:23.408Z,2.83
2022-12-13T04:33:52.323Z,3.75
2022-12-13T04:36:31.612Z,2.80
2022-12-13T04:39:01.331Z,3.30
2022-12-13T04:41:34.061Z,3.72
2022-12-13T04:44:03.551Z,3.38
2022-12-13T04:46:31.935Z,3.53
2022-12-13T04:49:00.243Z,4.75
2022-12-13T04:51:28.793Z,3.20
2022-12-13T04:53:57.070Z,4.20
2022-12-13T04:56:47.018Z,3.75
2022-12-13T04:59:15.257Z,3.28
2022-12-13T05:01:43.523Z,4.30
2022-12-13T05:04:11.782Z,3.25
2022-12-13T05:06:40.280Z,3.05
2022-12-13T05:09:11.234Z,3.65
2022-12-13T05:11:45.892Z,3.00
2022-12-13T05:14:23.269Z,3.05
2022-12-13T05:16:52.708Z,4.00
2022-12-13T05:19:21.082Z,4.15
2022-12-13T05:21:50.339Z,3.85
2022-12-13T05:24:19.420Z,3.38
2022-12-13T05:26:47.622Z,3.08
2022-12-13T05:29:17.305Z,3.45
2022-12-13T05:31:45.556Z,4.50
2022-12-13T05:34:13.802Z,3.40
2022-12-13T05:36:42.127Z,4.35
2022-12-13T05:39:28.423Z,4.15
2022-12-13T05:42:01.387Z,3.20
2022-12-13T05:44:33.255Z,4.32
2022-12-13T05:47:02.931Z,4.53
2022-12-13T05:49:32.581Z,3.70
2022-12-13T05:52:01.011Z,3.55
2022-12-13T05:54:29.242Z,4.00
2022-12-13T05:56:57.554Z,3.45
2022-12-13T05:59:25.751Z,3.70
2022-12-13T06:01:55.466Z,5.20
2022-12-13T06:04:23.783Z,4.10
2022-12-13T06:06:52.709Z,4.18
2022-12-13T06:09:21.473Z,3.97
2022-12-13T06:11:50.032Z,4.80
2022-12-13T06:14:21.702Z,4.43
2022-12-13T06:16:52.215Z,4.15
2022-12-13T06:19:22.571Z,4.35
2022-12-13T06:21:50.860Z,5.07
2022-12-13T06:24:21.102Z,4.25
2022-12-13T06:26:50.202Z,5.35
2022-12-13T06:29:22.654Z,4.55
2022-12-13T06:32:02.327Z,5.20
2022-12-13T06:35:28.436Z,4.22
2022-12-13T06:38:00.777Z,3.45
2022-12-13T06:40:29.461Z,5.97
2022-12-13T06:42:57.685Z,4.78
2022-12-13T06:45:26.375Z,2.85
2022-12-13T06:47:55.403Z,6.13
2022-12-13T06:50:25.073Z,3.10
2022-12-13T06:52:53.266Z,2.22
2022-12-13T06:55:23.540Z,6.07
2022-12-13T06:57:52.855Z,4.88
2022-12-13T07:00:21.860Z,4.32
2022-12-13T07:02:53.937Z,4.68
2022-12-13T07:05:25.064Z,15.20
2022-12-13T07:07:53.390Z,9.02
2022-12-13T07:10:23.104Z,5.22
2022-12-13T07:12:51.629Z,3.08
2022-12-13T07:15:19.867Z,6.32
2022-12-13T07:17:50.614Z,6.25
2022-12-13T07:20:21.053Z,5.30
2022-12-13T07:22:58.821Z,6.10
2022-12-13T07:25:29.548Z,5.15
2022-12-13T07:28:02.251Z,5.45
2022-12-13T07:30:31.873Z,5.40
2022-12-13T07:33:00.089Z,5.20
2022-12-13T07:35:28.286Z,5.07
2022-12-13T07:37:57.974Z,5.03
2022-12-13T07:40:26.719Z,5.75
2022-12-13T07:42:56.782Z,4.28
2022-12-13T07:45:26.873Z,5.10
2022-12-13T07:47:55.126Z,5.00
2022-12-13T07:50:23.911Z,4.85
2022-12-13T07:52:54.170Z,5.00
2022-12-13T07:55:33.015Z,5.60
2022-12-13T07:58:11.834Z,6.95
2022-12-13T08:00:41.256Z,6.10
2022-12-13T08:03:25.723Z,9.23
2022-12-13T08:06:00.436Z,6.90
2022-12-13T08:08:31.380Z,6.55
2022-12-13T08:11:05.408Z,9.20
2022-12-13T08:13:33.969Z,8.95
2022-12-13T08:16:03.359Z,9.30
2022-12-13T08:18:31.838Z,10.55
2022-12-13T08:21:00.935Z,10.68
2022-12-13T08:23:31.381Z,10.05
2022-12-13T08:25:59.772Z,10.95
2022-12-13T08:28:29.624Z,8.43
2022-12-13T08:31:03.805Z,11.13
2022-12-13T08:33:32.061Z,9.50
2022-12-13T08:36:00.326Z,9.95
2022-12-13T08:38:28.592Z,9.15
2022-12-13T08:40:59.976Z,11.02
2022-12-13T08:43:30.072Z,9.50
2022-12-13T08:46:01.231Z,8.95
2022-12-13T08:48:29.897Z,10.10
2022-12-13T08:51:01.986Z,8.75
2022-12-13T08:53:33.934Z,9.68
2022-12-13T08:56:12.846Z,10.02
2022-12-13T08:58:42.483Z,9.88
2022-12-13T09:01:11.337Z,9.52
2022-12-13T09:03:39.793Z,8.38
2022-12-13T09:06:10.586Z,8.63
2022-12-13T09:08:38.865Z,9.05
2022-12-13T09:11:11.161Z,8.20
2022-12-13T09:13:54.090Z,9.03
2022-12-13T09:16:35.866Z,10.45
2022-12-13T09:19:06.645Z,8.07
2022-12-13T09:21:53.918Z,9.23
2022-12-13T09:24:36.218Z,8.70
2022-12-13T09:27:09.665Z,9.40
2022-12-13T09:29:40.337Z,9.40
2022-12-13T09:32:08.690Z,9.20
2022-12-13T09:34:37.306Z,9.65
2022-12-13T09:37:07.320Z,7.73
2022-12-13T09:39:35.538Z,8.30
2022-12-13T09:42:10.205Z,7.60
2022-12-13T09:44:49.607Z,8.57
2022-12-13T09:47:34.945Z,8.53
2022-12-13T09:50:08.340Z,7.70
2022-12-13T09:52:45.136Z,8.00
2022-12-13T09:55:20.839Z,7.30
2022-12-13T09:57:50.062Z,7.80
2022-12-13T10:00:22.264Z,7.20
2022-12-13T10:02:52.785Z,6.83
2022-12-13T10:05:34.526Z,6.50
2022-12-13T10:08:09.224Z,7.60
2022-12-13T10:10:38.084Z,7.73
2022-12-13T10:13:12.404Z,7.23
2022-12-13T10:15:44.610Z,6.13
2022-12-13T10:18:26.523Z,7.33
2022-12-13T10:20:55.584Z,7.73
2022-12-13T10:23:38.707Z,7.73
2022-12-13T10:26:14.731Z,7.30
2022-12-13T10:28:52.594Z,7.20
2022-12-13T10:31:22.191Z,8.57
2022-12-13T10:33:55.424Z,8.37
2022-12-13T10:36:35.761Z,8.07
2022-12-13T10:39:04.864Z,6.77
2022-12-13T10:41:36.416Z,6.80
2022-12-13T10:44:25.737Z,7.10
2022-12-13T10:47:17.937Z,7.00
2022-12-13T10:49:59.331Z,7.70
2022-12-13T10:52:30.923Z,7.10
2022-12-13T10:55:04.626Z,6.87
2022-12-13T10:57:53.408Z,6.60
2022-12-13T11:00:43.057Z,6.37
2022-12-13T11:03:16.211Z,7.10
2022-12-13T11:05:46.827Z,5.10
2022-12-13T11:08:17.906Z,5.93
2022-12-13T11:10:46.241Z,6.30
2022-12-13T11:13:37.029Z,7.30
2022-12-13T11:16:07.550Z,6.70
2022-12-13T11:18:38.803Z,7.70
2022-12-13T11:21:08.542Z,6.80
2022-12-13T11:23:39.016Z,6.43
2022-12-13T11:26:10.996Z,6.67
2022-12-13T11:28:55.871Z,6.50
2022-12-13T11:31:28.440Z,7.33
2022-12-13T11:34:05.354Z,6.63
2022-12-13T11:36:42.107Z,6.30
2022-12-13T11:39:21.693Z,5.97
2022-12-13T11:41:55.568Z,5.90
2022-12-13T11:44:29.731Z,5.40
2022-12-13T11:47:00.500Z,6.20
2022-12-13T11:49:45.704Z,6.47
2022-12-13T11:52:17.926Z,5.20
2022-12-13T11:54:51.839Z,5.43
2022-12-13T11:57:31.642Z,6.37
2022-12-13T12:00:12.854Z,4.90
2022-12-13T12:02:45.980Z,5.93
2022-12-13T12:05:28.428Z,6.03
2022-12-13T12:08:32.157Z,5.03
2022-12-13T12:10:50.291Z,4.80
2022-12-13T12:13:22.953Z,5.83
2022-12-13T12:16:07.216Z,5.33
2022-12-13T12:18:35.598Z,5.90
2022-12-13T12:21:23.101Z,4.13
2022-12-13T12:24:02.997Z,5.90
2022-12-13T12:26:36.854Z,5.70
2022-12-13T12:29:35.909Z,5.50
2022-12-13T12:32:08.979Z,5.43
2022-12-13T12:34:42.045Z,5.40
2022-12-13T12:37:16.572Z,5.47
2022-12-13T12:39:46.134Z,5.63
2022-12-13T12:42:56.493Z,5.17
2022-12-13T12:45:56.437Z,5.27
2022-12-13T12:51:22.716Z,4.57
2022-12-13T12:54:08.139Z,5.00
2022-12-13T12:56:39.585Z,5.70
2022-12-13T12:59:16.374Z,5.60
2022-12-13T13:01:55.236Z,5.37
2022-12-13T13:04:28.375Z,6.20
2022-12-13T13:07:01.682Z,5.35
2022-12-13T13:09:32.702Z,4.93
2022-12-13T13:12:29.223Z,4.63
2022-12-13T13:14:52.734Z,6.15
2022-12-13T13:17:46.323Z,5.75
2022-12-13T13:20:20.583Z,5.17
2022-12-13T13:23:03.965Z,6.03
2022-12-13T13:26:00.366Z,5.87
2022-12-13T13:28:27.450Z,5.20
2022-12-13T13:31:03.693Z,5.93
2022-12-13T13:33:45.814Z,5.50
2022-12-13T13:36:46.625Z,5.87
2022-12-13T13:39:17.129Z,6.80
2022-12-13T13:42:18.081Z,4.70
2022-12-13T13:45:18.414Z,3.93
2022-12-13T13:47:58.931Z,4.38
2022-12-13T13:51:03.362Z,4.53
2022-12-13T13:54:00.510Z,3.55
2022-12-13T13:57:22.308Z,3.60
2022-12-13T14:00:23.369Z,4.50
2022-12-13T14:03:33.231Z,5.15
2022-12-13T14:06:39.085Z,5.27
2022-12-13T14:09:58.048Z,4.70
2022-12-13T14:13:05.365Z,5.32
2022-12-13T14:16:07.461Z,5.00
2022-12-13T14:19:25.958Z,5.57
2022-12-13T14:22:14.126Z,6.35
2022-12-13T14:24:52.767Z,5.40
2022-12-13T14:27:33.899Z,4.93
2022-12-13T14:30:17.882Z,5.47
2022-12-13T14:32:51.491Z,5.80
2022-12-13T14:35:26.974Z,5.72
2022-12-13T14:38:02.634Z,6.15
2022-12-13T14:40:33.208Z,5.38
2022-12-13T14:43:01.874Z,5.55
2022-12-13T14:45:31.779Z,6.25
2022-12-13T14:48:01.969Z,5.43
2022-12-13T14:50:34.484Z,5.53
2022-12-13T14:53:03.832Z,5.75
2022-12-13T14:55:33.681Z,6.32
2022-12-13T14:58:03.876Z,5.78
2022-12-13T15:00:35.543Z,5.95
2022-12-13T15:03:05.626Z,6.00
2022-12-13T15:05:39.976Z,5.13
2022-12-13T15:08:11.041Z,6.03
2022-12-13T15:10:41.440Z,4.65
2022-12-13T15:13:29.027Z,5.95
2022-12-13T15:16:01.257Z,5.45
2022-12-13T15:18:38.597Z,5.70
2022-12-13T15:21:22.158Z,5.95
2022-12-13T15:23:54.311Z,6.10
2022-12-13T15:26:29.729Z,5.82
2022-12-13T15:29:00.912Z,6.10
2022-12-13T15:31:29.892Z,7.38
2022-12-13T15:34:28.940Z,7.07
2022-12-13T15:37:01.589Z,6.32
2022-12-13T15:39:31.982Z,6.68
2022-12-13T15:42:01.235Z,7.18
2022-12-13T15:44:31.221Z,7.97
2022-12-13T15:47:03.601Z,9.13
2022-12-13T15:49:35.411Z,7.45
2022-12-13T15:52:08.276Z,7.28
2022-12-13T15:54:36.679Z,7.80
2022-12-13T15:57:14.448Z,9.15
2022-12-13T15:59:44.255Z,7.80
2022-12-13T16:02:18.779Z,9.45
2022-12-13T16:04:47.458Z,8.27
2022-12-13T16:07:26.324Z,8.30
2022-12-13T16:09:55.983Z,8.20
2022-12-13T16:12:26.374Z,9.68
2022-12-13T16:14:54.676Z,9.90
2022-12-13T16:17:37.648Z,10.13
2022-12-13T16:20:14.267Z,10.82
2022-12-13T16:22:44.548Z,9.70
2022-12-13T16:25:15.032Z,11.00
2022-12-13T16:27:43.500Z,10.07
2022-12-13T16:30:18.460Z,9.77
2022-12-13T16:35:35.542Z,9.75
2022-12-13T16:38:09.341Z,11.05
2022-12-13T16:40:39.146Z,10.02
2022-12-13T16:43:09.293Z,10.80
2022-12-13T16:45:42.556Z,11.57
2022-12-13T16:48:11.947Z,12.50
2022-12-13T16:50:43.274Z,10.95
2022-12-13T16:53:17.282Z,12.60
2022-12-13T16:55:58.135Z,12.75
2022-12-13T16:58:27.452Z,11.85
2022-12-13T17:00:59.370Z,11.57
2022-12-13T17:03:28.945Z,13.27
2022-12-13T17:05:59.051Z,12.52
2022-12-13T17:08:31.240Z,10.73
2022-12-13T17:11:00.242Z,12.55
2022-12-13T17:13:33.304Z,13.88
2022-12-13T17:16:03.170Z,12.50
2022-12-13T17:18:33.400Z,10.27
2022-12-13T17:21:09.226Z,13.52
2022-12-13T17:23:40.439Z,11.52
2022-12-13T17:26:13.131Z,12.35
2022-12-13T17:28:46.755Z,11.30
2022-12-13T17:31:16.605Z,14.13
2022-12-13T17:33:46.364Z,12.80
2022-12-13T17:36:17.539Z,20.60
2022-12-13T17:38:48.951Z,15.23
2022-12-13T17:41:18.332Z,14.73
2022-12-13T17:43:47.886Z,14.40
2022-12-13T17:46:18.421Z,14.82
2022-12-13T17:48:47.725Z,16.50
2022-12-13T17:51:17.009Z,14.70
2022-12-13T17:53:48.824Z,18.15
2022-12-13T17:56:19.827Z,33.70
2022-12-13T17:58:48.921Z,17.90
2022-12-13T18:01:19.422Z,16.80
2022-12-13T18:03:50.040Z,15.82
2022-12-13T18:06:19.903Z,15.27
2022-12-13T18:08:51.815Z,12.82
2022-12-13T18:11:37.096Z,12.93
2022-12-13T18:14:07.697Z,12.82
2022-12-13T18:16:40.726Z,11.73
2022-12-13T18:19:12.825Z,13.25
2022-12-13T18:21:43.717Z,12.85
2022-12-13T18:24:15.481Z,14.38
2022-12-13T18:26:46.001Z,11.02
2022-12-13T18:29:17.022Z,15.07
2022-12-13T18:31:46.271Z,12.98
2022-12-13T18:34:16.016Z,14.52
2022-12-13T18:36:45.088Z,14.10
2022-12-13T18:39:19.283Z,14.25
2022-12-13T18:41:48.924Z,16.27
2022-12-13T18:44:23.475Z,13.73
2022-12-13T18:46:53.603Z,15.10
2022-12-13T18:49:25.880Z,14.48
2022-12-13T18:51:56.334Z,13.75
2022-12-13T18:54:27.283Z,13.02
2022-12-13T18:56:57.041Z,12.02
2022-12-13T18:59:30.656Z,13.15
2022-12-13T19:02:07.430Z,13.85
2022-12-13T19:04:38.263Z,14.02
2022-12-13T19:07:12.082Z,15.05
2022-12-13T19:09:54.909Z,12.40
2022-12-13T19:12:26.611Z,13.55
2022-12-13T19:14:57.237Z,13.90
2022-12-13T19:17:28.338Z,14.35
2022-12-13T19:20:02.676Z,12.85
2022-12-13T19:22:34.368Z,15.00
2022-12-13T19:25:07.431Z,12.15
2022-12-13T19:27:39.629Z,13.55
2022-12-13T19:30:13.911Z,14.30
2022-12-13T19:32:44.245Z,14.25
2022-12-13T19:35:19.244Z,13.35
2022-12-13T19:37:49.303Z,13.63
2022-12-13T19:40:30.727Z,14.95
2022-12-13T19:43:02.723Z,14.18
2022-12-13T19:45:41.421Z,15.75
2022-12-13T19:48:12.004Z,17.13
2022-12-13T19:50:44.956Z,22.50
2022-12-13T19:53:15.523Z,18.02
2022-12-13T19:55:49.515Z,16.30
2022-12-13T19:58:20.086Z,17.48
2022-12-13T20:00:55.132Z,14.45
2022-12-13T20:03:27.499Z,12.63
2022-12-13T20:05:59.904Z,14.27
2022-12-13T20:08:33.645Z,8.35
2022-12-13T20:11:09.215Z,11.90
2022-12-13T20:13:39.662Z,12.80
2022-12-13T20:16:12.621Z,16.75
2022-12-13T20:18:44.490Z,14.43
2022-12-13T20:21:18.178Z,15.30
2022-12-13T20:26:41.026Z,12.90
2022-12-13T20:27:23.392Z,11.70
2022-12-13T20:29:14.226Z,12.55
2022-12-13T20:31:48.467Z,12.23
2022-12-13T20:34:21.628Z,12.80
2022-12-13T20:37:00.198Z,13.45
2022-12-13T20:39:29.736Z,12.73
2022-12-13T20:42:01.838Z,13.50
2022-12-13T20:44:32.891Z,12.90
2022-12-13T20:47:03.481Z,12.25
2022-12-13T20:49:33.872Z,13.23
2022-12-13T20:52:06.719Z,12.63
2022-12-13T20:54:37.026Z,13.32
2022-12-13T20:57:09.461Z,12.55
2022-12-13T20:59:41.680Z,12.02
2022-12-13T21:02:13.184Z,12.20
2022-12-13T21:04:43.691Z,4.18
2022-12-13T21:07:12.483Z,10.60
2022-12-13T21:09:43.141Z,9.00
2022-12-13T21:12:13.500Z,11.77
2022-12-13T21:14:42.350Z,11.68
2022-12-13T21:17:12.157Z,10.63
2022-12-13T21:19:41.155Z,10.45
2022-12-13T21:22:09.452Z,12.23
2022-12-13T21:24:38.091Z,13.05
2022-12-13T21:27:07.872Z,12.10
2022-12-13T21:29:38.066Z,12.63
2022-12-13T21:32:07.028Z,12.15
2022-12-13T21:34:35.789Z,12.68
2022-12-13T21:37:05.275Z,11.65
2022-12-13T21:39:33.618Z,9.32
2022-12-13T21:42:05.617Z,11.40
2022-12-13T21:44:34.033Z,10.95
2022-12-13T21:47:12.629Z,12.70
2022-12-13T21:49:41.578Z,12.25
2022-12-13T21:52:09.911Z,11.90
2022-12-13T21:54:38.404Z,12.07
2022-12-13T21:57:25.437Z,12.13
2022-12-13T21:59:53.743Z,10.35
2022-12-13T22:02:24.814Z,11.57
2022-12-13T22:04:54.532Z,10.18
2022-12-13T22:07:24.405Z,9.30
2022-12-13T22:09:53.669Z,13.07
2022-12-13T22:12:24.042Z,11.05
2022-12-13T22:14:52.689Z,10.73
2022-12-13T22:17:26.971Z,4.13
2022-12-13T22:19:58.324Z,5.78
2022-12-13T22:22:26.707Z,9.95
2022-12-13T22:24:54.980Z,5.43
2022-12-13T22:27:25.687Z,3.28
2022-12-13T22:29:54.602Z,6.10
2022-12-13T22:32:23.075Z,3.05
2022-12-13T22:34:51.600Z,7.30
2022-12-13T22:37:21.919Z,11.40
2022-12-13T22:39:50.278Z,4.85
2022-12-13T22:42:19.585Z,9.27
2022-12-13T22:44:47.840Z,8.70
2022-12-13T22:47:16.277Z,9.73
2022-12-13T22:49:44.492Z,7.07
2022-12-13T22:52:17.594Z,5.75
2022-12-13T22:54:47.469Z,8.18
2022-12-13T22:57:15.912Z,4.50
2022-12-13T22:59:44.827Z,6.30
2022-12-13T23:02:13.248Z,7.47
2022-12-13T23:04:41.619Z,7.68
2022-12-13T23:07:10.202Z,5.43
2022-12-13T23:09:38.458Z,8.18
2022-12-13T23:12:25.780Z,5.45
2022-12-13T23:14:54.025Z,8.00
2022-12-13T23:17:22.989Z,7.68
2022-12-13T23:19:53.191Z,6.85
2022-12-13T23:22:22.991Z,10.00
2022-12-13T23:24:51.580Z,2.60
2022-12-13T23:27:22.958Z,7.57
2022-12-13T23:29:51.976Z,9.90
2022-12-13T23:32:20.576Z,3.83
2022-12-13T23:34:48.837Z,5.65
2022-12-13T23:37:17.866Z,8.70
2022-12-13T23:39:46.106Z,4.07
2022-12-13T23:42:14.363Z,9.70
2022-12-13T23:44:44.613Z,7.10
2022-12-13T23:47:12.855Z,7.85
2022-12-13T23:49:41.067Z,3.92
2022-12-13T23:52:09.347Z,6.43
2022-12-13T23:54:37.578Z,6.63
2022-12-13T23:57:06.279Z,4.68
2022-12-13T23:59:34.477Z,6.35
